sensor_id;sensor_type;location;lat;lon;timestamp;temperature;humidity
792;DHT22;379;49.022;12.148;2022-11-04T00:01:49;9.30;99.90
792;DHT22;379;49.022;12.148;2022-11-04T00:04:17;9.20;99.90
792;DHT22;379;49.022;12.148;2022-11-04T00:06:44;9.20;99.90
792;DHT22;379;49.022;12.148;2022-11-04T00:09:15;9.20;99.90
792;DHT22;379;49.022;12.148;2022-11-04T00:11:42;9.20;99.90
792;DHT22;379;49.022;12.148;2022-11-04T00:14:27;9.20;99.90
792;DHT22;379;49.022;12.148;2022-11-04T00:16:54;9.20;99.90
792;DHT22;379;49.022;12.148;2022-11-04T00:19:39;9.30;99.90
792;DHT22;379;49.022;12.148;2022-11-04T00:22:23;9.30;99.90
792;DHT22;379;49.022;12.148;2022-11-04T00:25:09;9.30;99.90
792;DHT22;379;49.022;12.148;2022-11-04T00:28:00;9.30;99.90
792;DHT22;379;49.022;12.148;2022-11-04T00:30:44;9.40;99.90
792;DHT22;379;49.022;12.148;2022-11-04T00:33:11;9.40;99.90
792;DHT22;379;49.022;12.148;2022-11-04T00:35:54;9.30;99.90
792;DHT22;379;49.022;12.148;2022-11-04T00:38:22;9.30;99.90
792;DHT22;379;49.022;12.148;2022-11-04T00:40:50;9.40;99.90
792;DHT22;379;49.022;12.148;2022-11-04T00:43:17;9.30;99.90
792;DHT22;379;49.022;12.148;2022-11-04T00:45:44;9.40;99.90
792;DHT22;379;49.022;12.148;2022-11-04T00:48:10;9.30;99.90
792;DHT22;379;49.022;12.148;2022-11-04T00:50:38;9.30;99.90
792;DHT22;379;49.022;12.148;2022-11-04T00:53:05;9.30;99.90
792;DHT22;379;49.022;12.148;2022-11-04T00:55:31;9.40;99.90
792;DHT22;379;49.022;12.148;2022-11-04T00:57:59;9.40;99.90
792;DHT22;379;49.022;12.148;2022-11-04T01:00:26;9.40;99.90
792;DHT22;379;49.022;12.148;2022-11-04T01:02:55;9.50;99.90
792;DHT22;379;49.022;12.148;2022-11-04T01:05:22;9.50;99.90
792;DHT22;379;49.022;12.148;2022-11-04T01:07:48;9.50;99.90
792;DHT22;379;49.022;12.148;2022-11-04T01:10:15;9.50;99.90
792;DHT22;379;49.022;12.148;2022-11-04T01:12:42;9.50;99.90
792;DHT22;379;49.022;12.148;2022-11-04T01:15:11;9.50;99.90
792;DHT22;379;49.022;12.148;2022-11-04T01:17:38;9.50;99.90
792;DHT22;379;49.022;12.148;2022-11-04T01:20:05;9.50;99.90
792;DHT22;379;49.022;12.148;2022-11-04T01:22:32;9.40;99.90
792;DHT22;379;49.022;12.148;2022-11-04T01:24:59;9.50;99.90
792;DHT22;379;49.022;12.148;2022-11-04T01:27:26;9.40;99.90
792;DHT22;379;49.022;12.148;2022-11-04T01:29:52;9.50;99.90
792;DHT22;379;49.022;12.148;2022-11-04T01:32:20;9.50;99.90
792;DHT22;379;49.022;12.148;2022-11-04T01:34:47;9.50;99.90
792;DHT22;379;49.022;12.148;2022-11-04T01:37:13;9.50;99.90
792;DHT22;379;49.022;12.148;2022-11-04T01:39:40;9.50;99.90
792;DHT22;379;49.022;12.148;2022-11-04T01:42:12;9.50;99.90
792;DHT22;379;49.022;12.148;2022-11-04T01:44:57;9.50;99.90
792;DHT22;379;49.022;12.148;2022-11-04T01:47:30;9.50;99.90
792;DHT22;379;49.022;12.148;2022-11-04T01:50:00;9.60;99.90
792;DHT22;379;49.022;12.148;2022-11-04T01:52:33;9.60;99.90
792;DHT22;379;49.022;12.148;2022-11-04T01:55:05;9.60;99.90
792;DHT22;379;49.022;12.148;2022-11-04T01:57:39;9.60;99.90
792;DHT22;379;49.022;12.148;2022-11-04T02:00:08;9.60;99.90
792;DHT22;379;49.022;12.148;2022-11-04T02:02:43;9.60;99.90
792;DHT22;379;49.022;12.148;2022-11-04T02:05:12;9.60;99.90
792;DHT22;379;49.022;12.148;2022-11-04T02:07:38;9.50;99.90
792;DHT22;379;49.022;12.148;2022-11-04T02:10:06;9.60;99.90
792;DHT22;379;49.022;12.148;2022-11-04T02:12:33;9.50;99.90
792;DHT22;379;49.022;12.148;2022-11-04T02:15:19;9.50;99.90
792;DHT22;379;49.022;12.148;2022-11-04T02:18:18;9.50;99.90
792;DHT22;379;49.022;12.148;2022-11-04T02:21:10;9.50;99.90
792;DHT22;379;49.022;12.148;2022-11-04T02:29:48;9.40;99.90
792;DHT22;379;49.022;12.148;2022-11-04T02:32:24;9.40;99.90
792;DHT22;379;49.022;12.148;2022-11-04T02:35:00;9.40;99.90
792;DHT22;379;49.022;12.148;2022-11-04T02:37:35;9.40;99.90
792;DHT22;379;49.022;12.148;2022-11-04T02:40:11;9.40;99.90
792;DHT22;379;49.022;12.148;2022-11-04T02:42:47;9.50;99.90
792;DHT22;379;49.022;12.148;2022-11-04T02:45:21;9.40;99.90
792;DHT22;379;49.022;12.148;2022-11-04T02:47:53;9.40;99.90
792;DHT22;379;49.022;12.148;2022-11-04T02:50:24;9.40;99.90
792;DHT22;379;49.022;12.148;2022-11-04T02:52:56;9.40;99.90
792;DHT22;379;49.022;12.148;2022-11-04T02:55:26;9.40;99.90
792;DHT22;379;49.022;12.148;2022-11-04T02:57:55;9.40;99.90
792;DHT22;379;49.022;12.148;2022-11-04T03:00:27;9.40;99.90
792;DHT22;379;49.022;12.148;2022-11-04T03:02:58;9.40;99.90
792;DHT22;379;49.022;12.148;2022-11-04T03:05:28;9.40;99.90
792;DHT22;379;49.022;12.148;2022-11-04T03:08:00;9.40;99.90
792;DHT22;379;49.022;12.148;2022-11-04T03:10:32;9.30;99.90
792;DHT22;379;49.022;12.148;2022-11-04T03:13:04;9.30;99.90
792;DHT22;379;49.022;12.148;2022-11-04T03:15:34;9.30;99.90
792;DHT22;379;49.022;12.148;2022-11-04T03:18:13;9.30;99.90
792;DHT22;379;49.022;12.148;2022-11-04T03:20:45;9.20;99.90
792;DHT22;379;49.022;12.148;2022-11-04T03:23:12;9.20;99.90
792;DHT22;379;49.022;12.148;2022-11-04T03:25:43;9.20;99.90
792;DHT22;379;49.022;12.148;2022-11-04T03:28:23;9.20;99.90
792;DHT22;379;49.022;12.148;2022-11-04T03:30:54;9.20;99.90
792;DHT22;379;49.022;12.148;2022-11-04T03:33:26;9.20;99.90
792;DHT22;379;49.022;12.148;2022-11-04T03:35:54;9.20;99.90
792;DHT22;379;49.022;12.148;2022-11-04T03:38:21;9.20;99.90
792;DHT22;379;49.022;12.148;2022-11-04T03:40:48;9.20;99.90
792;DHT22;379;49.022;12.148;2022-11-04T03:43:18;9.20;99.90
792;DHT22;379;49.022;12.148;2022-11-04T03:45:46;9.10;99.90
792;DHT22;379;49.022;12.148;2022-11-04T03:48:15;9.10;99.90
792;DHT22;379;49.022;12.148;2022-11-04T03:50:44;9.10;99.90
792;DHT22;379;49.022;12.148;2022-11-04T03:53:12;9.10;99.90
792;DHT22;379;49.022;12.148;2022-11-04T03:55:55;9.10;99.90
792;DHT22;379;49.022;12.148;2022-11-04T03:58:32;9.10;99.90
792;DHT22;379;49.022;12.148;2022-11-04T04:01:08;9.10;99.90
792;DHT22;379;49.022;12.148;2022-11-04T04:03:40;9.10;99.90
792;DHT22;379;49.022;12.148;2022-11-04T04:06:11;9.00;99.90
792;DHT22;379;49.022;12.148;2022-11-04T04:08:42;9.00;99.90
792;DHT22;379;49.022;12.148;2022-11-04T04:11:16;9.00;99.90
792;DHT22;379;49.022;12.148;2022-11-04T04:13:47;9.10;99.90
792;DHT22;379;49.022;12.148;2022-11-04T04:16:21;9.10;99.90
792;DHT22;379;49.022;12.148;2022-11-04T04:18:55;9.10;99.90
792;DHT22;379;49.022;12.148;2022-11-04T04:21:27;9.10;99.90
792;DHT22;379;49.022;12.148;2022-11-04T04:23:57;9.10;99.90
792;DHT22;379;49.022;12.148;2022-11-04T04:26:44;9.10;99.90
792;DHT22;379;49.022;12.148;2022-11-04T04:29:30;9.10;99.90
792;DHT22;379;49.022;12.148;2022-11-04T04:31:58;9.10;99.90
792;DHT22;379;49.022;12.148;2022-11-04T04:34:28;9.10;99.90
792;DHT22;379;49.022;12.148;2022-11-04T04:37:00;9.10;99.90
792;DHT22;379;49.022;12.148;2022-11-04T04:39:31;9.00;99.90
792;DHT22;379;49.022;12.148;2022-11-04T04:42:17;9.10;99.90
792;DHT22;379;49.022;12.148;2022-11-04T04:45:03;9.10;99.90
792;DHT22;379;49.022;12.148;2022-11-04T04:47:34;9.00;99.90
792;DHT22;379;49.022;12.148;2022-11-04T04:50:03;9.00;99.90
792;DHT22;379;49.022;12.148;2022-11-04T04:52:32;9.00;99.90
792;DHT22;379;49.022;12.148;2022-11-04T04:54:59;9.00;99.90
792;DHT22;379;49.022;12.148;2022-11-04T04:57:26;9.00;99.90
792;DHT22;379;49.022;12.148;2022-11-04T04:59:53;9.00;99.90
792;DHT22;379;49.022;12.148;2022-11-04T05:02:20;9.00;99.90
792;DHT22;379;49.022;12.148;2022-11-04T05:04:47;9.00;99.90
792;DHT22;379;49.022;12.148;2022-11-04T05:07:15;9.00;99.90
792;DHT22;379;49.022;12.148;2022-11-04T05:09:42;9.00;99.90
792;DHT22;379;49.022;12.148;2022-11-04T05:12:09;9.00;99.90
792;DHT22;379;49.022;12.148;2022-11-04T05:14:35;9.00;99.90
792;DHT22;379;49.022;12.148;2022-11-04T05:17:02;9.00;99.90
792;DHT22;379;49.022;12.148;2022-11-04T05:19:29;9.00;99.90
792;DHT22;379;49.022;12.148;2022-11-04T05:21:56;9.00;99.90
792;DHT22;379;49.022;12.148;2022-11-04T05:24:24;9.00;99.90
792;DHT22;379;49.022;12.148;2022-11-04T05:26:51;8.90;99.90
792;DHT22;379;49.022;12.148;2022-11-04T05:29:18;8.90;99.90
792;DHT22;379;49.022;12.148;2022-11-04T05:31:44;8.90;99.90
792;DHT22;379;49.022;12.148;2022-11-04T05:34:12;8.90;99.90
792;DHT22;379;49.022;12.148;2022-11-04T05:36:39;8.90;99.90
792;DHT22;379;49.022;12.148;2022-11-04T05:39:06;8.90;99.90
792;DHT22;379;49.022;12.148;2022-11-04T05:41:34;8.80;99.90
792;DHT22;379;49.022;12.148;2022-11-04T05:44:02;8.80;99.90
792;DHT22;379;49.022;12.148;2022-11-04T05:46:30;8.80;99.90
792;DHT22;379;49.022;12.148;2022-11-04T05:48:56;8.80;99.90
792;DHT22;379;49.022;12.148;2022-11-04T05:51:25;8.90;99.90
792;DHT22;379;49.022;12.148;2022-11-04T05:53:52;8.90;99.90
792;DHT22;379;49.022;12.148;2022-11-04T05:56:19;8.90;99.90
792;DHT22;379;49.022;12.148;2022-11-04T05:58:47;8.90;99.90
792;DHT22;379;49.022;12.148;2022-11-04T06:01:24;8.90;99.90
792;DHT22;379;49.022;12.148;2022-11-04T06:03:51;8.90;99.90
792;DHT22;379;49.022;12.148;2022-11-04T06:06:19;8.90;99.90
792;DHT22;379;49.022;12.148;2022-11-04T06:08:46;8.90;99.90
792;DHT22;379;49.022;12.148;2022-11-04T06:11:13;8.90;99.90
792;DHT22;379;49.022;12.148;2022-11-04T06:13:39;8.90;99.90
792;DHT22;379;49.022;12.148;2022-11-04T06:16:07;8.90;99.90
792;DHT22;379;49.022;12.148;2022-11-04T06:18:34;8.90;99.90
792;DHT22;379;49.022;12.148;2022-11-04T06:21:20;8.90;99.90
792;DHT22;379;49.022;12.148;2022-11-04T06:23:49;8.90;99.90
792;DHT22;379;49.022;12.148;2022-11-04T06:26:16;8.90;99.90
792;DHT22;379;49.022;12.148;2022-11-04T06:28:43;9.00;99.90
792;DHT22;379;49.022;12.148;2022-11-04T06:31:12;9.00;99.90
792;DHT22;379;49.022;12.148;2022-11-04T06:33:39;9.00;99.90
792;DHT22;379;49.022;12.148;2022-11-04T06:36:07;9.00;99.90
792;DHT22;379;49.022;12.148;2022-11-04T06:38:35;9.00;99.90
792;DHT22;379;49.022;12.148;2022-11-04T06:41:03;8.90;99.90
792;DHT22;379;49.022;12.148;2022-11-04T06:43:30;9.00;99.90
792;DHT22;379;49.022;12.148;2022-11-04T06:45:58;9.00;99.90
792;DHT22;379;49.022;12.148;2022-11-04T06:48:27;9.00;99.90
792;DHT22;379;49.022;12.148;2022-11-04T06:50:55;9.00;99.90
792;DHT22;379;49.022;12.148;2022-11-04T06:53:21;9.00;99.90
792;DHT22;379;49.022;12.148;2022-11-04T06:55:49;9.00;99.90
792;DHT22;379;49.022;12.148;2022-11-04T06:58:16;9.00;99.90
792;DHT22;379;49.022;12.148;2022-11-04T07:00:43;9.00;99.90
792;DHT22;379;49.022;12.148;2022-11-04T07:03:10;9.00;99.90
792;DHT22;379;49.022;12.148;2022-11-04T07:05:38;9.00;99.90
792;DHT22;379;49.022;12.148;2022-11-04T07:08:05;9.00;99.90
792;DHT22;379;49.022;12.148;2022-11-04T07:10:32;9.00;99.90
792;DHT22;379;49.022;12.148;2022-11-04T07:12:59;9.00;99.90
792;DHT22;379;49.022;12.148;2022-11-04T07:15:26;9.00;99.90
792;DHT22;379;49.022;12.148;2022-11-04T07:17:52;9.00;99.90
792;DHT22;379;49.022;12.148;2022-11-04T07:20:19;9.00;99.90
792;DHT22;379;49.022;12.148;2022-11-04T07:22:47;9.00;99.90
792;DHT22;379;49.022;12.148;2022-11-04T07:25:14;9.00;99.90
792;DHT22;379;49.022;12.148;2022-11-04T07:27:41;8.90;99.90
792;DHT22;379;49.022;12.148;2022-11-04T07:30:08;8.90;99.90
792;DHT22;379;49.022;12.148;2022-11-04T07:32:35;8.90;99.90
792;DHT22;379;49.022;12.148;2022-11-04T07:35:02;8.90;99.90
792;DHT22;379;49.022;12.148;2022-11-04T07:37:30;8.90;99.90
792;DHT22;379;49.022;12.148;2022-11-04T07:39:58;8.90;99.90
792;DHT22;379;49.022;12.148;2022-11-04T07:42:24;8.90;99.90
792;DHT22;379;49.022;12.148;2022-11-04T07:44:51;9.00;99.90
792;DHT22;379;49.022;12.148;2022-11-04T07:47:18;9.00;99.90
792;DHT22;379;49.022;12.148;2022-11-04T07:49:44;9.00;99.90
792;DHT22;379;49.022;12.148;2022-11-04T07:52:11;9.00;99.90
792;DHT22;379;49.022;12.148;2022-11-04T07:54:38;9.00;99.90
792;DHT22;379;49.022;12.148;2022-11-04T07:57:06;9.00;99.90
792;DHT22;379;49.022;12.148;2022-11-04T07:59:33;9.00;99.90
792;DHT22;379;49.022;12.148;2022-11-04T08:01:59;9.00;99.90
792;DHT22;379;49.022;12.148;2022-11-04T08:04:26;9.00;99.90
792;DHT22;379;49.022;12.148;2022-11-04T08:06:53;9.00;99.90
792;DHT22;379;49.022;12.148;2022-11-04T08:09:20;9.00;99.90
792;DHT22;379;49.022;12.148;2022-11-04T08:11:47;9.10;99.90
792;DHT22;379;49.022;12.148;2022-11-04T08:14:15;9.10;99.90
792;DHT22;379;49.022;12.148;2022-11-04T08:16:42;9.20;99.90
792;DHT22;379;49.022;12.148;2022-11-04T08:19:09;9.20;99.90
792;DHT22;379;49.022;12.148;2022-11-04T08:21:35;9.30;99.90
792;DHT22;379;49.022;12.148;2022-11-04T08:24:02;9.30;99.90
792;DHT22;379;49.022;12.148;2022-11-04T08:26:30;9.30;99.90
792;DHT22;379;49.022;12.148;2022-11-04T08:28:57;9.30;99.90
792;DHT22;379;49.022;12.148;2022-11-04T08:31:28;9.30;99.90
792;DHT22;379;49.022;12.148;2022-11-04T08:33:56;9.30;99.90
792;DHT22;379;49.022;12.148;2022-11-04T08:36:24;9.30;99.90
792;DHT22;379;49.022;12.148;2022-11-04T08:38:52;9.20;99.90
792;DHT22;379;49.022;12.148;2022-11-04T08:41:21;9.20;99.90
792;DHT22;379;49.022;12.148;2022-11-04T08:43:48;9.20;99.90
792;DHT22;379;49.022;12.148;2022-11-04T08:46:16;9.30;99.90
792;DHT22;379;49.022;12.148;2022-11-04T08:48:44;9.30;99.90
792;DHT22;379;49.022;12.148;2022-11-04T08:51:12;9.40;99.90
792;DHT22;379;49.022;12.148;2022-11-04T08:53:39;9.40;99.90
792;DHT22;379;49.022;12.148;2022-11-04T08:56:15;9.50;99.90
792;DHT22;379;49.022;12.148;2022-11-04T08:58:42;9.50;99.90
792;DHT22;379;49.022;12.148;2022-11-04T09:01:09;9.60;99.90
792;DHT22;379;49.022;12.148;2022-11-04T09:03:38;9.70;99.90
792;DHT22;379;49.022;12.148;2022-11-04T09:06:07;9.80;99.90
792;DHT22;379;49.022;12.148;2022-11-04T09:08:35;9.90;99.90
792;DHT22;379;49.022;12.148;2022-11-04T09:11:06;10.00;99.90
792;DHT22;379;49.022;12.148;2022-11-04T09:13:33;10.20;99.90
792;DHT22;379;49.022;12.148;2022-11-04T09:16:00;10.30;99.90
792;DHT22;379;49.022;12.148;2022-11-04T09:18:26;10.40;99.90
792;DHT22;379;49.022;12.148;2022-11-04T09:20:53;10.50;99.90
792;DHT22;379;49.022;12.148;2022-11-04T09:23:21;10.40;99.90
792;DHT22;379;49.022;12.148;2022-11-04T09:25:48;10.30;99.90
792;DHT22;379;49.022;12.148;2022-11-04T09:28:14;10.30;99.90
792;DHT22;379;49.022;12.148;2022-11-04T09:30:41;10.30;99.90
792;DHT22;379;49.022;12.148;2022-11-04T09:33:08;10.50;99.90
792;DHT22;379;49.022;12.148;2022-11-04T09:35:35;10.60;99.90
792;DHT22;379;49.022;12.148;2022-11-04T09:38:01;10.80;99.90
792;DHT22;379;49.022;12.148;2022-11-04T09:40:34;10.90;99.90
792;DHT22;379;49.022;12.148;2022-11-04T09:43:13;11.10;99.90
792;DHT22;379;49.022;12.148;2022-11-04T09:45:43;11.20;99.90
792;DHT22;379;49.022;12.148;2022-11-04T09:48:18;11.30;99.90
792;DHT22;379;49.022;12.148;2022-11-04T09:50:50;11.40;99.90
792;DHT22;379;49.022;12.148;2022-11-04T09:53:21;11.40;99.90
792;DHT22;379;49.022;12.148;2022-11-04T09:55:54;11.40;99.90
792;DHT22;379;49.022;12.148;2022-11-04T09:58:22;11.50;99.90
792;DHT22;379;49.022;12.148;2022-11-04T10:00:56;11.60;99.90
792;DHT22;379;49.022;12.148;2022-11-04T10:03:38;11.60;99.90
792;DHT22;379;49.022;12.148;2022-11-04T10:06:19;11.60;99.90
792;DHT22;379;49.022;12.148;2022-11-04T10:08:59;11.50;99.90
792;DHT22;379;49.022;12.148;2022-11-04T10:11:35;11.40;99.90
792;DHT22;379;49.022;12.148;2022-11-04T10:14:16;11.30;99.90
792;DHT22;379;49.022;12.148;2022-11-04T10:16:56;11.20;99.90
792;DHT22;379;49.022;12.148;2022-11-04T10:19:43;11.20;99.90
792;DHT22;379;49.022;12.148;2022-11-04T10:22:17;11.20;99.90
792;DHT22;379;49.022;12.148;2022-11-04T10:24:59;11.20;99.90
792;DHT22;379;49.022;12.148;2022-11-04T10:27:33;11.10;99.90
792;DHT22;379;49.022;12.148;2022-11-04T10:30:02;11.10;99.90
792;DHT22;379;49.022;12.148;2022-11-04T10:32:34;11.10;99.90
792;DHT22;379;49.022;12.148;2022-11-04T10:35:09;11.10;99.90
792;DHT22;379;49.022;12.148;2022-11-04T10:37:39;11.10;99.90
792;DHT22;379;49.022;12.148;2022-11-04T10:40:18;11.30;99.90
792;DHT22;379;49.022;12.148;2022-11-04T10:42:48;11.40;99.90
792;DHT22;379;49.022;12.148;2022-11-04T10:45:18;11.60;99.90
792;DHT22;379;49.022;12.148;2022-11-04T10:47:50;11.80;99.90
792;DHT22;379;49.022;12.148;2022-11-04T10:50:24;12.00;99.90
792;DHT22;379;49.022;12.148;2022-11-04T10:52:54;12.40;99.90
792;DHT22;379;49.022;12.148;2022-11-04T10:55:30;12.50;99.90
792;DHT22;379;49.022;12.148;2022-11-04T10:58:02;12.50;99.90
792;DHT22;379;49.022;12.148;2022-11-04T11:00:34;12.30;99.90
792;DHT22;379;49.022;12.148;2022-11-04T11:03:01;12.20;99.90
792;DHT22;379;49.022;12.148;2022-11-04T11:05:27;12.00;99.90
792;DHT22;379;49.022;12.148;2022-11-04T11:07:55;11.90;99.90
792;DHT22;379;49.022;12.148;2022-11-04T11:10:24;11.80;99.90
792;DHT22;379;49.022;12.148;2022-11-04T11:12:53;11.60;99.90
792;DHT22;379;49.022;12.148;2022-11-04T11:15:29;11.60;99.90
792;DHT22;379;49.022;12.148;2022-11-04T11:18:00;11.50;99.90
792;DHT22;379;49.022;12.148;2022-11-04T11:20:32;11.50;99.90
792;DHT22;379;49.022;12.148;2022-11-04T11:23:03;11.50;99.90
792;DHT22;379;49.022;12.148;2022-11-04T11:25:34;11.40;99.90
792;DHT22;379;49.022;12.148;2022-11-04T11:28:04;11.30;99.90
792;DHT22;379;49.022;12.148;2022-11-04T11:30:34;11.30;99.90
792;DHT22;379;49.022;12.148;2022-11-04T11:33:15;11.30;99.90
792;DHT22;379;49.022;12.148;2022-11-04T11:35:48;11.30;99.90
792;DHT22;379;49.022;12.148;2022-11-04T11:38:18;11.30;99.90
792;DHT22;379;49.022;12.148;2022-11-04T11:40:47;11.20;99.90
792;DHT22;379;49.022;12.148;2022-11-04T11:43:22;11.20;99.90
792;DHT22;379;49.022;12.148;2022-11-04T11:45:51;11.20;99.90
792;DHT22;379;49.022;12.148;2022-11-04T11:48:30;11.20;99.90
792;DHT22;379;49.022;12.148;2022-11-04T11:50:58;11.10;99.90
792;DHT22;379;49.022;12.148;2022-11-04T11:53:26;10.90;99.90
792;DHT22;379;49.022;12.148;2022-11-04T11:56:01;10.80;99.90
792;DHT22;379;49.022;12.148;2022-11-04T11:58:34;10.60;99.90
792;DHT22;379;49.022;12.148;2022-11-04T12:01:09;10.60;99.90
792;DHT22;379;49.022;12.148;2022-11-04T12:03:42;10.50;99.90
792;DHT22;379;49.022;12.148;2022-11-04T12:06:21;10.40;99.90
792;DHT22;379;49.022;12.148;2022-11-04T12:09:04;10.40;99.90
792;DHT22;379;49.022;12.148;2022-11-04T12:11:39;10.30;99.90
792;DHT22;379;49.022;12.148;2022-11-04T12:14:14;10.10;99.90
792;DHT22;379;49.022;12.148;2022-11-04T12:16:50;9.80;99.90
792;DHT22;379;49.022;12.148;2022-11-04T12:22:16;9.40;99.90
792;DHT22;379;49.022;12.148;2022-11-04T12:24:50;9.30;99.90
792;DHT22;379;49.022;12.148;2022-11-04T12:27:25;9.10;99.90
792;DHT22;379;49.022;12.148;2022-11-04T12:30:06;9.10;99.90
792;DHT22;379;49.022;12.148;2022-11-04T12:32:44;9.10;99.90
792;DHT22;379;49.022;12.148;2022-11-04T12:35:27;9.10;99.90
792;DHT22;379;49.022;12.148;2022-11-04T12:38:14;9.10;99.90
792;DHT22;379;49.022;12.148;2022-11-04T12:40:46;9.00;99.90
792;DHT22;379;49.022;12.148;2022-11-04T12:43:20;8.90;99.90
792;DHT22;379;49.022;12.148;2022-11-04T12:45:58;8.90;99.90
792;DHT22;379;49.022;12.148;2022-11-04T12:48:48;8.80;99.90
792;DHT22;379;49.022;12.148;2022-11-04T12:51:25;8.80;99.90
792;DHT22;379;49.022;12.148;2022-11-04T12:54:17;8.70;99.90
792;DHT22;379;49.022;12.148;2022-11-04T12:56:53;8.60;99.90
792;DHT22;379;49.022;12.148;2022-11-04T12:59:59;8.60;99.90
792;DHT22;379;49.022;12.148;2022-11-04T13:02:29;8.50;99.90
792;DHT22;379;49.022;12.148;2022-11-04T13:05:02;8.50;99.90
792;DHT22;379;49.022;12.148;2022-11-04T13:07:32;8.50;99.90
792;DHT22;379;49.022;12.148;2022-11-04T13:10:05;8.50;99.90
792;DHT22;379;49.022;12.148;2022-11-04T13:12:37;8.50;99.90
792;DHT22;379;49.022;12.148;2022-11-04T13:15:13;8.50;99.90
792;DHT22;379;49.022;12.148;2022-11-04T13:17:43;8.50;99.90
792;DHT22;379;49.022;12.148;2022-11-04T13:20:23;8.60;99.90
792;DHT22;379;49.022;12.148;2022-11-04T13:22:52;8.60;99.90
792;DHT22;379;49.022;12.148;2022-11-04T13:25:28;8.60;99.90
792;DHT22;379;49.022;12.148;2022-11-04T13:27:56;8.60;99.90
792;DHT22;379;49.022;12.148;2022-11-04T13:30:30;8.60;99.90
792;DHT22;379;49.022;12.148;2022-11-04T13:33:06;8.60;99.90
792;DHT22;379;49.022;12.148;2022-11-04T13:35:40;8.60;99.90
792;DHT22;379;49.022;12.148;2022-11-04T13:38:12;8.60;99.90
792;DHT22;379;49.022;12.148;2022-11-04T13:40:45;8.60;99.90
792;DHT22;379;49.022;12.148;2022-11-04T13:43:21;8.60;99.90
792;DHT22;379;49.022;12.148;2022-11-04T13:46:24;8.70;99.90
792;DHT22;379;49.022;12.148;2022-11-04T13:49:01;8.80;99.90
792;DHT22;379;49.022;12.148;2022-11-04T13:51:38;8.90;99.90
792;DHT22;379;49.022;12.148;2022-11-04T13:54:06;8.90;99.90
792;DHT22;379;49.022;12.148;2022-11-04T13:56:48;8.90;99.90
792;DHT22;379;49.022;12.148;2022-11-04T13:59:21;8.90;99.90
792;DHT22;379;49.022;12.148;2022-11-04T14:02:24;9.00;99.90
792;DHT22;379;49.022;12.148;2022-11-04T14:08:19;9.00;99.90
792;DHT22;379;49.022;12.148;2022-11-04T14:11:13;9.10;99.90
792;DHT22;379;49.022;12.148;2022-11-04T14:14:02;9.10;99.90
792;DHT22;379;49.022;12.148;2022-11-04T14:16:43;9.00;99.90
792;DHT22;379;49.022;12.148;2022-11-04T14:25:22;8.90;99.90
792;DHT22;379;49.022;12.148;2022-11-04T14:27:52;8.80;99.90
792;DHT22;379;49.022;12.148;2022-11-04T14:30:34;8.80;99.90
792;DHT22;379;49.022;12.148;2022-11-04T14:33:04;8.80;99.90
792;DHT22;379;49.022;12.148;2022-11-04T14:35:32;8.80;99.90
792;DHT22;379;49.022;12.148;2022-11-04T14:38:16;8.80;99.90
792;DHT22;379;49.022;12.148;2022-11-04T14:40:50;8.80;99.90
792;DHT22;379;49.022;12.148;2022-11-04T14:43:29;8.80;99.90
792;DHT22;379;49.022;12.148;2022-11-04T14:45:57;8.90;99.90
792;DHT22;379;49.022;12.148;2022-11-04T14:48:25;8.90;99.90
792;DHT22;379;49.022;12.148;2022-11-04T14:50:54;8.90;99.90
792;DHT22;379;49.022;12.148;2022-11-04T14:53:24;8.90;99.90
792;DHT22;379;49.022;12.148;2022-11-04T14:56:05;8.90;99.90
792;DHT22;379;49.022;12.148;2022-11-04T14:58:32;8.90;99.90
792;DHT22;379;49.022;12.148;2022-11-04T15:01:00;8.90;99.90
792;DHT22;379;49.022;12.148;2022-11-04T15:03:32;8.90;99.90
792;DHT22;379;49.022;12.148;2022-11-04T15:06:01;8.90;99.90
792;DHT22;379;49.022;12.148;2022-11-04T15:08:31;8.80;99.90
792;DHT22;379;49.022;12.148;2022-11-04T15:11:00;8.80;99.90
792;DHT22;379;49.022;12.148;2022-11-04T15:13:32;8.80;99.90
792;DHT22;379;49.022;12.148;2022-11-04T15:16:01;8.80;99.90
792;DHT22;379;49.022;12.148;2022-11-04T15:18:30;8.80;99.90
792;DHT22;379;49.022;12.148;2022-11-04T15:20:59;8.70;99.90
792;DHT22;379;49.022;12.148;2022-11-04T15:23:27;8.70;99.90
792;DHT22;379;49.022;12.148;2022-11-04T15:25:56;8.70;99.90
792;DHT22;379;49.022;12.148;2022-11-04T15:28:26;8.60;99.90
792;DHT22;379;49.022;12.148;2022-11-04T15:31:07;8.70;99.90
792;DHT22;379;49.022;12.148;2022-11-04T15:33:42;8.60;99.90
792;DHT22;379;49.022;12.148;2022-11-04T15:36:13;8.60;99.90
792;DHT22;379;49.022;12.148;2022-11-04T15:38:44;8.50;99.90
792;DHT22;379;49.022;12.148;2022-11-04T15:41:13;8.50;99.90
792;DHT22;379;49.022;12.148;2022-11-04T15:43:58;8.50;99.90
792;DHT22;379;49.022;12.148;2022-11-04T15:46:27;8.40;99.90
792;DHT22;379;49.022;12.148;2022-11-04T15:49:03;8.40;99.90
792;DHT22;379;49.022;12.148;2022-11-04T15:51:35;8.40;99.90
792;DHT22;379;49.022;12.148;2022-11-04T15:54:05;8.40;99.90
792;DHT22;379;49.022;12.148;2022-11-04T15:56:37;8.40;99.90
792;DHT22;379;49.022;12.148;2022-11-04T15:59:08;8.40;99.90
792;DHT22;379;49.022;12.148;2022-11-04T16:01:44;8.30;99.90
792;DHT22;379;49.022;12.148;2022-11-04T16:04:12;8.30;99.90
792;DHT22;379;49.022;12.148;2022-11-04T16:06:41;8.20;99.90
792;DHT22;379;49.022;12.148;2022-11-04T16:09:20;8.20;99.90
792;DHT22;379;49.022;12.148;2022-11-04T16:12:04;8.20;99.90
792;DHT22;379;49.022;12.148;2022-11-04T16:14:31;8.20;99.90
792;DHT22;379;49.022;12.148;2022-11-04T16:16:59;8.10;99.90
792;DHT22;379;49.022;12.148;2022-11-04T16:19:28;8.10;99.90
792;DHT22;379;49.022;12.148;2022-11-04T16:22:02;8.10;99.90
792;DHT22;379;49.022;12.148;2022-11-04T16:24:31;8.10;99.90
792;DHT22;379;49.022;12.148;2022-11-04T16:26:58;8.10;99.90
792;DHT22;379;49.022;12.148;2022-11-04T16:29:27;8.10;99.90
792;DHT22;379;49.022;12.148;2022-11-04T16:32:27;8.00;99.90
792;DHT22;379;49.022;12.148;2022-11-04T16:34:58;8.00;99.90
792;DHT22;379;49.022;12.148;2022-11-04T16:37:25;8.00;99.90
792;DHT22;379;49.022;12.148;2022-11-04T16:39:52;8.00;99.90
792;DHT22;379;49.022;12.148;2022-11-04T16:42:20;8.00;99.90
792;DHT22;379;49.022;12.148;2022-11-04T16:44:48;8.00;99.90
792;DHT22;379;49.022;12.148;2022-11-04T16:47:16;8.00;99.90
792;DHT22;379;49.022;12.148;2022-11-04T16:49:45;8.00;99.90
792;DHT22;379;49.022;12.148;2022-11-04T16:52:13;8.00;99.90
792;DHT22;379;49.022;12.148;2022-11-04T16:54:44;7.90;99.90
792;DHT22;379;49.022;12.148;2022-11-04T16:57:13;7.90;99.90
792;DHT22;379;49.022;12.148;2022-11-04T16:59:40;8.00;99.90
792;DHT22;379;49.022;12.148;2022-11-04T17:02:16;7.90;99.90
792;DHT22;379;49.022;12.148;2022-11-04T17:04:45;7.90;99.90
792;DHT22;379;49.022;12.148;2022-11-04T17:07:12;7.90;99.90
792;DHT22;379;49.022;12.148;2022-11-04T17:09:39;7.90;99.90
792;DHT22;379;49.022;12.148;2022-11-04T17:12:06;7.90;99.90
792;DHT22;379;49.022;12.148;2022-11-04T17:14:33;7.90;99.90
792;DHT22;379;49.022;12.148;2022-11-04T17:16:59;7.90;99.90
792;DHT22;379;49.022;12.148;2022-11-04T17:19:26;7.90;99.90